sensor_id;sensor_type;location;lat;lon;timestamp;P1;durP1;ratioP1;P2;durP2;ratioP2
13685;SDS011;6915;48.296;8.874;2022-12-18T07:44:00;21.93;;;9.57;;
13685;SDS011;6915;48.296;8.874;2022-12-18T07:46:29;22.67;;;9.50;;
13685;SDS011;6915;48.296;8.874;2022-12-18T07:48:58;24.97;;;10.20;;
13685;SDS011;6915;48.296;8.874;2022-12-18T07:51:27;26.17;;;9.67;;
13685;SDS011;6915;48.296;8.874;2022-12-18T07:53:57;22.50;;;9.73;;
13685;SDS011;6915;48.296;8.874;2022-12-18T07:56:27;29.13;;;11.93;;
13685;SDS011;6915;48.296;8.874;2022-12-18T07:58:57;23.20;;;10.77;;
13685;SDS011;6915;48.296;8.874;2022-12-18T08:01:32;23.87;;;11.83;;
13685;SDS011;6915;48.296;8.874;2022-12-18T08:04:01;25.27;;;10.60;;
13685;SDS011;6915;48.296;8.874;2022-12-18T08:06:30;22.47;;;11.30;;
13685;SDS011;6915;48.296;8.874;2022-12-18T08:09:01;24.17;;;10.83;;
13685;SDS011;6915;48.296;8.874;2022-12-18T08:11:31;24.00;;;10.60;;
13685;SDS011;6915;48.296;8.874;2022-12-18T08:14:00;26.00;;;10.80;;
13685;SDS011;6915;48.296;8.874;2022-12-18T08:16:29;27.90;;;11.83;;
13685;SDS011;6915;48.296;8.874;2022-12-18T08:19:00;23.50;;;10.67;;
13685;SDS011;6915;48.296;8.874;2022-12-18T08:21:29;25.90;;;11.93;;
13685;SDS011;6915;48.296;8.874;2022-12-18T08:23:59;26.27;;;11.03;;
13685;SDS011;6915;48.296;8.874;2022-12-18T08:26:30;29.57;;;12.33;;
13685;SDS011;6915;48.296;8.874;2022-12-18T08:29:00;29.10;;;12.07;;
13685;SDS011;6915;48.296;8.874;2022-12-18T08:31:29;27.43;;;13.20;;
13685;SDS011;6915;48.296;8.874;2022-12-18T08:33:59;27.90;;;12.17;;
13685;SDS011;6915;48.296;8.874;2022-12-18T08:36:28;25.53;;;10.90;;
13685;SDS011;6915;48.296;8.874;2022-12-18T08:38:57;26.63;;;11.50;;
13685;SDS011;6915;48.296;8.874;2022-12-18T08:41:30;27.43;;;12.03;;
13685;SDS011;6915;48.296;8.874;2022-12-18T08:43:59;30.17;;;12.87;;
13685;SDS011;6915;48.296;8.874;2022-12-18T08:46:45;32.00;;;14.00;;
13685;SDS011;6915;48.296;8.874;2022-12-18T08:49:15;29.23;;;13.20;;
13685;SDS011;6915;48.296;8.874;2022-12-18T08:51:44;26.77;;;12.40;;
13685;SDS011;6915;48.296;8.874;2022-12-18T08:54:13;24.93;;;11.30;;
13685;SDS011;6915;48.296;8.874;2022-12-18T08:56:42;24.77;;;11.93;;
13685;SDS011;6915;48.296;8.874;2022-12-18T08:59:11;27.23;;;12.47;;
13685;SDS011;6915;48.296;8.874;2022-12-18T09:01:40;23.03;;;11.07;;
13685;SDS011;6915;48.296;8.874;2022-12-18T09:04:09;26.57;;;12.23;;
13685;SDS011;6915;48.296;8.874;2022-12-18T09:06:40;49.03;;;20.63;;
13685;SDS011;6915;48.296;8.874;2022-12-18T09:09:09;32.50;;;14.43;;
13685;SDS011;6915;48.296;8.874;2022-12-18T09:11:38;39.03;;;16.30;;
13685;SDS011;6915;48.296;8.874;2022-12-18T09:14:07;29.40;;;14.93;;
13685;SDS011;6915;48.296;8.874;2022-12-18T09:16:37;27.60;;;13.03;;
13685;SDS011;6915;48.296;8.874;2022-12-18T09:19:06;25.80;;;12.70;;
13685;SDS011;6915;48.296;8.874;2022-12-18T09:21:40;29.57;;;13.23;;
13685;SDS011;6915;48.296;8.874;2022-12-18T09:24:08;36.73;;;15.93;;
13685;SDS011;6915;48.296;8.874;2022-12-18T09:26:40;44.27;;;20.37;;
13685;SDS011;6915;48.296;8.874;2022-12-18T09:29:09;35.17;;;17.10;;
13685;SDS011;6915;48.296;8.874;2022-12-18T09:31:38;40.33;;;19.33;;
13685;SDS011;6915;48.296;8.874;2022-12-18T09:34:06;32.63;;;15.13;;
13685;SDS011;6915;48.296;8.874;2022-12-18T09:36:35;41.93;;;22.43;;
13685;SDS011;6915;48.296;8.874;2022-12-18T09:39:06;41.30;;;19.40;;
13685;SDS011;6915;48.296;8.874;2022-12-18T09:41:38;37.20;;;17.60;;
13685;SDS011;6915;48.296;8.874;2022-12-18T09:44:11;35.33;;;17.83;;
13685;SDS011;6915;48.296;8.874;2022-12-18T09:46:46;31.50;;;15.00;;
13685;SDS011;6915;48.296;8.874;2022-12-18T09:49:16;33.03;;;15.87;;
13685;SDS011;6915;48.296;8.874;2022-12-18T09:51:49;31.93;;;15.37;;
13685;SDS011;6915;48.296;8.874;2022-12-18T09:54:25;29.97;;;14.67;;
13685;SDS011;6915;48.296;8.874;2022-12-18T09:56:58;37.10;;;17.33;;
13685;SDS011;6915;48.296;8.874;2022-12-18T09:59:27;44.47;;;21.80;;
13685;SDS011;6915;48.296;8.874;2022-12-18T10:02:05;50.20;;;23.83;;
13685;SDS011;6915;48.296;8.874;2022-12-18T10:04:43;58.60;;;26.10;;
13685;SDS011;6915;48.296;8.874;2022-12-18T10:07:20;49.30;;;23.93;;
13685;SDS011;6915;48.296;8.874;2022-12-18T10:09:55;56.37;;;27.00;;
13685;SDS011;6915;48.296;8.874;2022-12-18T10:12:32;61.97;;;28.43;;
13685;SDS011;6915;48.296;8.874;2022-12-18T10:15:10;53.67;;;24.07;;
13685;SDS011;6915;48.296;8.874;2022-12-18T10:17:43;62.50;;;28.63;;
13685;SDS011;6915;48.296;8.874;2022-12-18T10:20:19;57.63;;;25.27;;
13685;SDS011;6915;48.296;8.874;2022-12-18T10:22:53;52.20;;;24.97;;
13685;SDS011;6915;48.296;8.874;2022-12-18T10:25:33;63.37;;;27.00;;
13685;SDS011;6915;48.296;8.874;2022-12-18T10:28:07;52.40;;;25.43;;
13685;SDS011;6915;48.296;8.874;2022-12-18T10:30:40;67.07;;;29.87;;
13685;SDS011;6915;48.296;8.874;2022-12-18T10:33:10;64.50;;;29.93;;
13685;SDS011;6915;48.296;8.874;2022-12-18T10:35:45;59.53;;;27.00;;
13685;SDS011;6915;48.296;8.874;2022-12-18T10:38:22;53.83;;;26.07;;
13685;SDS011;6915;48.296;8.874;2022-12-18T10:40:53;54.13;;;26.00;;
13685;SDS011;6915;48.296;8.874;2022-12-18T10:43:24;52.43;;;24.57;;
13685;SDS011;6915;48.296;8.874;2022-12-18T10:45:59;48.57;;;23.23;;
13685;SDS011;6915;48.296;8.874;2022-12-18T10:48:52;54.90;;;25.03;;
13685;SDS011;6915;48.296;8.874;2022-12-18T10:51:23;45.00;;;22.87;;
13685;SDS011;6915;48.296;8.874;2022-12-18T10:53:57;46.23;;;22.03;;
13685;SDS011;6915;48.296;8.874;2022-12-18T10:56:29;41.97;;;21.23;;
13685;SDS011;6915;48.296;8.874;2022-12-18T10:59:02;48.40;;;20.83;;
13685;SDS011;6915;48.296;8.874;2022-12-18T11:01:45;41.60;;;20.67;;
13685;SDS011;6915;48.296;8.874;2022-12-18T11:04:16;33.67;;;17.93;;
13685;SDS011;6915;48.296;8.874;2022-12-18T11:06:55;36.77;;;18.30;;
13685;SDS011;6915;48.296;8.874;2022-12-18T11:09:24;31.17;;;16.77;;
13685;SDS011;6915;48.296;8.874;2022-12-18T11:11:59;30.43;;;16.20;;
13685;SDS011;6915;48.296;8.874;2022-12-18T11:14:32;28.83;;;15.87;;
13685;SDS011;6915;48.296;8.874;2022-12-18T11:17:17;30.47;;;16.40;;
13685;SDS011;6915;48.296;8.874;2022-12-18T11:19:52;33.93;;;17.10;;
13685;SDS011;6915;48.296;8.874;2022-12-18T11:22:23;27.93;;;16.20;;
13685;SDS011;6915;48.296;8.874;2022-12-18T11:24:55;31.40;;;16.60;;
13685;SDS011;6915;48.296;8.874;2022-12-18T11:27:27;33.07;;;16.43;;
13685;SDS011;6915;48.296;8.874;2022-12-18T11:30:07;31.30;;;17.07;;
13685;SDS011;6915;48.296;8.874;2022-12-18T11:32:37;31.23;;;17.43;;
13685;SDS011;6915;48.296;8.874;2022-12-18T11:35:14;31.27;;;16.73;;
13685;SDS011;6915;48.296;8.874;2022-12-18T11:37:49;32.53;;;17.80;;
13685;SDS011;6915;48.296;8.874;2022-12-18T11:40:25;33.90;;;18.83;;
13685;SDS011;6915;48.296;8.874;2022-12-18T11:43:01;36.77;;;19.40;;
13685;SDS011;6915;48.296;8.874;2022-12-18T11:45:34;33.63;;;19.37;;
13685;SDS011;6915;48.296;8.874;2022-12-18T11:48:11;44.63;;;23.83;;
13685;SDS011;6915;48.296;8.874;2022-12-18T11:50:48;39.07;;;21.33;;
13685;SDS011;6915;48.296;8.874;2022-12-18T11:53:19;40.10;;;22.27;;
13685;SDS011;6915;48.296;8.874;2022-12-18T11:55:50;38.13;;;21.33;;
13685;SDS011;6915;48.296;8.874;2022-12-18T12:01:17;36.20;;;19.60;;
13685;SDS011;6915;48.296;8.874;2022-12-18T12:07:06;39.20;;;20.70;;
13685;SDS011;6915;48.296;8.874;2022-12-18T12:09:46;35.47;;;19.00;;
13685;SDS011;6915;48.296;8.874;2022-12-18T12:12:26;32.27;;;18.00;;
13685;SDS011;6915;48.296;8.874;2022-12-18T12:15:17;34.30;;;19.53;;
13685;SDS011;6915;48.296;8.874;2022-12-18T12:17:54;35.07;;;19.00;;
13685;SDS011;6915;48.296;8.874;2022-12-18T12:20:32;33.33;;;19.53;;
13685;SDS011;6915;48.296;8.874;2022-12-18T12:23:12;32.40;;;19.33;;
13685;SDS011;6915;48.296;8.874;2022-12-18T12:25:49;36.33;;;20.93;;
13685;SDS011;6915;48.296;8.874;2022-12-18T12:28:28;36.83;;;19.97;;
13685;SDS011;6915;48.296;8.874;2022-12-18T12:31:10;35.70;;;20.40;;
13685;SDS011;6915;48.296;8.874;2022-12-18T12:33:51;36.27;;;20.67;;
13685;SDS011;6915;48.296;8.874;2022-12-18T12:36:30;37.73;;;19.73;;
13685;SDS011;6915;48.296;8.874;2022-12-18T12:39:08;35.63;;;20.37;;
13685;SDS011;6915;48.296;8.874;2022-12-18T12:41:42;35.77;;;19.87;;
13685;SDS011;6915;48.296;8.874;2022-12-18T12:44:31;33.97;;;19.23;;
13685;SDS011;6915;48.296;8.874;2022-12-18T12:47:07;32.23;;;18.77;;
13685;SDS011;6915;48.296;8.874;2022-12-18T12:49:41;33.43;;;18.27;;
13685;SDS011;6915;48.296;8.874;2022-12-18T12:52:14;32.93;;;18.63;;
13685;SDS011;6915;48.296;8.874;2022-12-18T12:54:46;34.23;;;18.97;;
13685;SDS011;6915;48.296;8.874;2022-12-18T12:57:30;32.97;;;19.40;;
13685;SDS011;6915;48.296;8.874;2022-12-18T13:00:05;33.97;;;18.87;;
13685;SDS011;6915;48.296;8.874;2022-12-18T13:02:38;32.90;;;19.03;;
13685;SDS011;6915;48.296;8.874;2022-12-18T13:05:16;31.63;;;18.47;;
13685;SDS011;6915;48.296;8.874;2022-12-18T13:07:50;38.53;;;19.77;;
13685;SDS011;6915;48.296;8.874;2022-12-18T13:10:26;33.67;;;18.37;;
13685;SDS011;6915;48.296;8.874;2022-12-18T13:13:00;31.63;;;18.57;;
13685;SDS011;6915;48.296;8.874;2022-12-18T13:15:37;31.43;;;19.27;;
13685;SDS011;6915;48.296;8.874;2022-12-18T13:18:19;30.27;;;18.23;;
13685;SDS011;6915;48.296;8.874;2022-12-18T13:21:01;30.57;;;17.67;;
13685;SDS011;6915;48.296;8.874;2022-12-18T13:23:34;31.33;;;18.00;;
13685;SDS011;6915;48.296;8.874;2022-12-18T13:28:57;29.63;;;17.97;;
13685;SDS011;6915;48.296;8.874;2022-12-18T13:34:27;38.10;;;21.10;;
13685;SDS011;6915;48.296;8.874;2022-12-18T13:36:57;38.67;;;21.20;;
13685;SDS011;6915;48.296;8.874;2022-12-18T13:40:05;35.10;;;19.30;;
13685;SDS011;6915;48.296;8.874;2022-12-18T13:43:15;38.90;;;22.40;;
13685;SDS011;6915;48.296;8.874;2022-12-18T13:45:58;36.90;;;21.47;;
13685;SDS011;6915;48.296;8.874;2022-12-18T13:48:40;35.83;;;19.40;;
13685;SDS011;6915;48.296;8.874;2022-12-18T13:51:17;32.53;;;18.13;;
13685;SDS011;6915;48.296;8.874;2022-12-18T13:53:48;32.03;;;19.13;;
13685;SDS011;6915;48.296;8.874;2022-12-18T13:56:22;33.70;;;19.93;;
13685;SDS011;6915;48.296;8.874;2022-12-18T13:59:03;34.27;;;19.67;;
13685;SDS011;6915;48.296;8.874;2022-12-18T14:01:41;32.53;;;19.37;;
13685;SDS011;6915;48.296;8.874;2022-12-18T14:04:16;32.00;;;18.70;;
13685;SDS011;6915;48.296;8.874;2022-12-18T14:06:46;29.57;;;16.70;;
13685;SDS011;6915;48.296;8.874;2022-12-18T14:09:19;29.23;;;17.50;;
13685;SDS011;6915;48.296;8.874;2022-12-18T14:11:58;27.73;;;16.27;;
13685;SDS011;6915;48.296;8.874;2022-12-18T14:14:46;28.63;;;16.80;;
13685;SDS011;6915;48.296;8.874;2022-12-18T14:17:20;29.70;;;17.47;;
13685;SDS011;6915;48.296;8.874;2022-12-18T14:20:02;28.60;;;17.00;;
13685;SDS011;6915;48.296;8.874;2022-12-18T14:22:55;28.77;;;16.43;;
13685;SDS011;6915;48.296;8.874;2022-12-18T14:25:30;27.87;;;16.03;;
13685;SDS011;6915;48.296;8.874;2022-12-18T14:28:13;28.40;;;15.67;;
13685;SDS011;6915;48.296;8.874;2022-12-18T14:30:53;26.80;;;16.67;;
13685;SDS011;6915;48.296;8.874;2022-12-18T14:33:32;30.60;;;16.57;;
13685;SDS011;6915;48.296;8.874;2022-12-18T14:36:15;32.73;;;16.77;;
13685;SDS011;6915;48.296;8.874;2022-12-18T14:38:50;38.73;;;21.07;;
13685;SDS011;6915;48.296;8.874;2022-12-18T14:41:22;46.27;;;23.43;;
13685;SDS011;6915;48.296;8.874;2022-12-18T14:44:12;45.57;;;23.77;;
13685;SDS011;6915;48.296;8.874;2022-12-18T14:46:56;48.00;;;25.10;;
13685;SDS011;6915;48.296;8.874;2022-12-18T14:49:31;42.30;;;23.50;;
13685;SDS011;6915;48.296;8.874;2022-12-18T14:52:16;42.93;;;22.37;;
13685;SDS011;6915;48.296;8.874;2022-12-18T14:55:00;40.87;;;21.57;;
13685;SDS011;6915;48.296;8.874;2022-12-18T14:57:32;36.80;;;18.77;;
13685;SDS011;6915;48.296;8.874;2022-12-18T15:00:18;36.27;;;19.37;;
13685;SDS011;6915;48.296;8.874;2022-12-18T15:02:58;39.47;;;20.23;;
13685;SDS011;6915;48.296;8.874;2022-12-18T15:05:34;33.57;;;17.83;;
13685;SDS011;6915;48.296;8.874;2022-12-18T15:10:58;33.87;;;16.47;;
13685;SDS011;6915;48.296;8.874;2022-12-18T15:13:30;29.03;;;16.53;;
13685;SDS011;6915;48.296;8.874;2022-12-18T15:16:10;28.60;;;16.33;;
13685;SDS011;6915;48.296;8.874;2022-12-18T15:18:41;29.13;;;15.47;;
13685;SDS011;6915;48.296;8.874;2022-12-18T15:21:22;28.23;;;15.00;;
13685;SDS011;6915;48.296;8.874;2022-12-18T15:23:58;28.20;;;15.00;;
13685;SDS011;6915;48.296;8.874;2022-12-18T15:26:30;28.13;;;15.37;;
13685;SDS011;6915;48.296;8.874;2022-12-18T15:29:15;27.43;;;14.87;;
13685;SDS011;6915;48.296;8.874;2022-12-18T15:32:05;33.57;;;18.20;;
13685;SDS011;6915;48.296;8.874;2022-12-18T15:34:44;51.90;;;26.20;;
13685;SDS011;6915;48.296;8.874;2022-12-18T15:37:14;32.37;;;16.63;;
13685;SDS011;6915;48.296;8.874;2022-12-18T15:39:43;29.47;;;15.77;;
13685;SDS011;6915;48.296;8.874;2022-12-18T15:42:14;38.67;;;19.60;;
13685;SDS011;6915;48.296;8.874;2022-12-18T15:45:01;31.83;;;16.13;;
13685;SDS011;6915;48.296;8.874;2022-12-18T15:47:31;31.53;;;16.30;;
13685;SDS011;6915;48.296;8.874;2022-12-18T15:50:02;33.33;;;17.13;;
13685;SDS011;6915;48.296;8.874;2022-12-18T15:52:40;31.03;;;17.57;;
13685;SDS011;6915;48.296;8.874;2022-12-18T15:55:12;33.13;;;17.27;;
13685;SDS011;6915;48.296;8.874;2022-12-18T15:58:00;31.03;;;15.47;;
13685;SDS011;6915;48.296;8.874;2022-12-18T16:00:38;30.67;;;15.90;;
13685;SDS011;6915;48.296;8.874;2022-12-18T16:03:12;32.17;;;15.97;;
13685;SDS011;6915;48.296;8.874;2022-12-18T16:05:41;33.23;;;16.93;;
13685;SDS011;6915;48.296;8.874;2022-12-18T16:08:10;35.07;;;16.17;;
13685;SDS011;6915;48.296;8.874;2022-12-18T16:10:40;32.57;;;16.37;;
13685;SDS011;6915;48.296;8.874;2022-12-18T16:13:10;32.27;;;17.10;;
13685;SDS011;6915;48.296;8.874;2022-12-18T16:15:43;34.20;;;17.67;;
13685;SDS011;6915;48.296;8.874;2022-12-18T16:18:15;33.07;;;17.53;;
13685;SDS011;6915;48.296;8.874;2022-12-18T16:20:45;36.27;;;17.37;;
13685;SDS011;6915;48.296;8.874;2022-12-18T16:23:14;39.13;;;19.07;;
13685;SDS011;6915;48.296;8.874;2022-12-18T16:25:43;36.37;;;18.30;;
13685;SDS011;6915;48.296;8.874;2022-12-18T16:28:15;32.73;;;16.93;;
13685;SDS011;6915;48.296;8.874;2022-12-18T16:30:45;32.83;;;16.50;;
13685;SDS011;6915;48.296;8.874;2022-12-18T16:33:26;28.20;;;15.80;;
13685;SDS011;6915;48.296;8.874;2022-12-18T16:35:55;33.80;;;17.90;;
13685;SDS011;6915;48.296;8.874;2022-12-18T16:38:24;35.73;;;18.30;;
13685;SDS011;6915;48.296;8.874;2022-12-18T16:40:54;37.60;;;19.30;;
13685;SDS011;6915;48.296;8.874;2022-12-18T16:43:41;37.83;;;18.43;;
13685;SDS011;6915;48.296;8.874;2022-12-18T16:46:10;35.50;;;18.50;;
13685;SDS011;6915;48.296;8.874;2022-12-18T16:48:41;32.63;;;16.97;;
13685;SDS011;6915;48.296;8.874;2022-12-18T16:51:10;36.97;;;18.83;;
13685;SDS011;6915;48.296;8.874;2022-12-18T16:53:38;36.70;;;19.13;;
13685;SDS011;6915;48.296;8.874;2022-12-18T16:56:15;40.83;;;20.33;;
13685;SDS011;6915;48.296;8.874;2022-12-18T16:58:51;35.63;;;18.53;;
13685;SDS011;6915;48.296;8.874;2022-12-18T17:01:21;34.63;;;16.67;;
13685;SDS011;6915;48.296;8.874;2022-12-18T17:03:52;35.10;;;17.67;;
13685;SDS011;6915;48.296;8.874;2022-12-18T17:06:23;30.33;;;15.07;;
13685;SDS011;6915;48.296;8.874;2022-12-18T17:08:54;31.30;;;15.43;;
13685;SDS011;6915;48.296;8.874;2022-12-18T17:11:24;34.27;;;17.23;;
13685;SDS011;6915;48.296;8.874;2022-12-18T17:13:54;32.97;;;16.60;;
13685;SDS011;6915;48.296;8.874;2022-12-18T17:16:23;29.47;;;16.00;;
13685;SDS011;6915;48.296;8.874;2022-12-18T17:18:53;32.03;;;16.97;;
13685;SDS011;6915;48.296;8.874;2022-12-18T17:21:24;31.10;;;16.37;;
13685;SDS011;6915;48.296;8.874;2022-12-18T17:23:53;30.53;;;16.17;;
13685;SDS011;6915;48.296;8.874;2022-12-18T17:26:24;30.80;;;16.83;;
13685;SDS011;6915;48.296;8.874;2022-12-18T17:28:54;32.87;;;17.37;;
13685;SDS011;6915;48.296;8.874;2022-12-18T17:31:25;32.80;;;16.70;;
13685;SDS011;6915;48.296;8.874;2022-12-18T17:33:57;31.37;;;16.87;;
13685;SDS011;6915;48.296;8.874;2022-12-18T17:36:26;39.07;;;17.80;;
13685;SDS011;6915;48.296;8.874;2022-12-18T17:38:57;32.37;;;16.90;;
13685;SDS011;6915;48.296;8.874;2022-12-18T17:41:27;31.20;;;16.47;;
13685;SDS011;6915;48.296;8.874;2022-12-18T17:43:57;31.23;;;15.97;;
13685;SDS011;6915;48.296;8.874;2022-12-18T17:46:27;30.37;;;16.23;;
13685;SDS011;6915;48.296;8.874;2022-12-18T17:49:00;30.50;;;16.50;;
13685;SDS011;6915;48.296;8.874;2022-12-18T17:51:29;33.77;;;16.67;;
13685;SDS011;6915;48.296;8.874;2022-12-18T17:53:58;41.17;;;19.13;;
13685;SDS011;6915;48.296;8.874;2022-12-18T17:56:27;35.07;;;18.03;;
13685;SDS011;6915;48.296;8.874;2022-12-18T17:58:57;39.53;;;18.87;;
13685;SDS011;6915;48.296;8.874;2022-12-18T18:01:26;39.77;;;19.97;;
13685;SDS011;6915;48.296;8.874;2022-12-18T18:03:55;36.60;;;18.80;;
13685;SDS011;6915;48.296;8.874;2022-12-18T18:06:29;35.43;;;17.37;;
13685;SDS011;6915;48.296;8.874;2022-12-18T18:08:59;39.47;;;20.73;;
13685;SDS011;6915;48.296;8.874;2022-12-18T18:11:28;38.37;;;20.10;;
13685;SDS011;6915;48.296;8.874;2022-12-18T18:14:16;39.00;;;20.77;;
13685;SDS011;6915;48.296;8.874;2022-12-18T18:16:48;41.43;;;20.63;;
13685;SDS011;6915;48.296;8.874;2022-12-18T18:19:17;42.87;;;21.60;;
13685;SDS011;6915;48.296;8.874;2022-12-18T18:21:50;39.27;;;20.40;;
13685;SDS011;6915;48.296;8.874;2022-12-18T18:24:20;46.87;;;23.37;;
13685;SDS011;6915;48.296;8.874;2022-12-18T18:26:50;43.40;;;22.50;;
13685;SDS011;6915;48.296;8.874;2022-12-18T18:39:19;38.40;;;21.60;;
13685;SDS011;6915;48.296;8.874;2022-12-18T18:42:46;44.73;;;22.43;;
13685;SDS011;6915;48.296;8.874;2022-12-18T19:05:18;43.30;;;21.20;;
13685;SDS011;6915;48.296;8.874;2022-12-18T19:50:20;63.60;;;29.80;;
13685;SDS011;6915;48.296;8.874;2022-12-18T19:59:49;61.70;;;29.93;;
13685;SDS011;6915;48.296;8.874;2022-12-18T21:01:23;49.53;;;21.30;;
13685;SDS011;6915;48.296;8.874;2022-12-18T21:03:53;47.43;;;21.93;;
13685;SDS011;6915;48.296;8.874;2022-12-18T21:06:23;52.23;;;21.77;;
13685;SDS011;6915;48.296;8.874;2022-12-18T21:08:54;47.83;;;20.60;;
13685;SDS011;6915;48.296;8.874;2022-12-18T21:11:27;42.90;;;20.63;;
13685;SDS011;6915;48.296;8.874;2022-12-18T21:14:15;45.43;;;21.03;;
13685;SDS011;6915;48.296;8.874;2022-12-18T21:16:47;39.63;;;20.63;;
13685;SDS011;6915;48.296;8.874;2022-12-18T21:19:24;47.90;;;21.73;;
13685;SDS011;6915;48.296;8.874;2022-12-18T21:21:54;44.80;;;21.90;;
13685;SDS011;6915;48.296;8.874;2022-12-18T21:24:23;47.97;;;21.80;;
13685;SDS011;6915;48.296;8.874;2022-12-18T21:26:52;45.67;;;22.13;;
13685;SDS011;6915;48.296;8.874;2022-12-18T21:29:21;44.17;;;21.93;;
13685;SDS011;6915;48.296;8.874;2022-12-18T21:31:52;43.60;;;21.23;;
13685;SDS011;6915;48.296;8.874;2022-12-18T21:34:22;49.30;;;22.07;;
13685;SDS011;6915;48.296;8.874;2022-12-18T21:36:52;48.77;;;22.93;;
13685;SDS011;6915;48.296;8.874;2022-12-18T21:39:23;48.10;;;23.03;;
13685;SDS011;6915;48.296;8.874;2022-12-18T21:41:52;45.17;;;22.93;;
13685;SDS011;6915;48.296;8.874;2022-12-18T21:44:39;44.07;;;21.37;;
13685;SDS011;6915;48.296;8.874;2022-12-18T21:47:11;44.17;;;21.50;;
13685;SDS011;6915;48.296;8.874;2022-12-18T21:49:40;40.57;;;20.83;;
13685;SDS011;6915;48.296;8.874;2022-12-18T21:52:09;45.97;;;22.50;;
13685;SDS011;6915;48.296;8.874;2022-12-18T21:54:38;54.07;;;25.27;;
13685;SDS011;6915;48.296;8.874;2022-12-18T21:57:07;56.03;;;25.60;;
13685;SDS011;6915;48.296;8.874;2022-12-18T21:59:37;47.27;;;23.10;;
13685;SDS011;6915;48.296;8.874;2022-12-18T22:02:09;49.20;;;23.10;;
13685;SDS011;6915;48.296;8.874;2022-12-18T22:04:39;43.13;;;22.07;;
13685;SDS011;6915;48.296;8.874;2022-12-18T22:07:08;48.10;;;23.03;;
13685;SDS011;6915;48.296;8.874;2022-12-18T22:09:38;47.73;;;21.97;;
13685;SDS011;6915;48.296;8.874;2022-12-18T22:12:07;50.77;;;24.03;;
13685;SDS011;6915;48.296;8.874;2022-12-18T22:14:58;46.90;;;22.53;;
13685;SDS011;6915;48.296;8.874;2022-12-18T22:17:28;47.80;;;23.00;;
13685;SDS011;6915;48.296;8.874;2022-12-18T22:19:57;47.63;;;22.63;;
13685;SDS011;6915;48.296;8.874;2022-12-18T22:22:25;49.90;;;23.73;;
13685;SDS011;6915;48.296;8.874;2022-12-18T22:24:54;47.87;;;23.47;;
13685;SDS011;6915;48.296;8.874;2022-12-18T22:27:23;43.63;;;22.67;;
13685;SDS011;6915;48.296;8.874;2022-12-18T22:29:51;42.87;;;22.23;;
13685;SDS011;6915;48.296;8.874;2022-12-18T22:32:32;44.90;;;22.23;;
13685;SDS011;6915;48.296;8.874;2022-12-18T22:35:03;45.80;;;23.23;;
13685;SDS011;6915;48.296;8.874;2022-12-18T22:37:31;44.30;;;22.10;;
13685;SDS011;6915;48.296;8.874;2022-12-18T22:40:00;45.73;;;22.83;;
13685;SDS011;6915;48.296;8.874;2022-12-18T22:42:28;43.60;;;21.50;;
13685;SDS011;6915;48.296;8.874;2022-12-18T22:44:57;44.90;;;21.87;;
13685;SDS011;6915;48.296;8.874;2022-12-18T22:47:26;42.27;;;20.80;;
13685;SDS011;6915;48.296;8.874;2022-12-18T22:49:56;46.27;;;21.20;;
13685;SDS011;6915;48.296;8.874;2022-12-18T22:52:24;47.40;;;21.87;;
13685;SDS011;6915;48.296;8.874;2022-12-18T22:54:53;44.03;;;22.57;;
13685;SDS011;6915;48.296;8.874;2022-12-18T22:57:22;44.47;;;21.47;;
13685;SDS011;6915;48.296;8.874;2022-12-18T22:59:51;43.97;;;20.73;;
13685;SDS011;6915;48.296;8.874;2022-12-18T23:02:20;46.67;;;21.00;;
13685;SDS011;6915;48.296;8.874;2022-12-18T23:04:48;41.40;;;20.47;;
13685;SDS011;6915;48.296;8.874;2022-12-18T23:07:18;40.33;;;20.37;;
13685;SDS011;6915;48.296;8.874;2022-12-18T23:09:47;43.23;;;20.37;;
13685;SDS011;6915;48.296;8.874;2022-12-18T23:12:18;45.43;;;20.63;;
13685;SDS011;6915;48.296;8.874;2022-12-18T23:14:46;43.57;;;21.37;;
13685;SDS011;6915;48.296;8.874;2022-12-18T23:17:15;38.80;;;20.23;;
13685;SDS011;6915;48.296;8.874;2022-12-18T23:19:44;43.57;;;20.97;;
13685;SDS011;6915;48.296;8.874;2022-12-18T23:22:12;41.87;;;19.90;;
13685;SDS011;6915;48.296;8.874;2022-12-18T23:24:42;45.57;;;19.87;;
13685;SDS011;6915;48.296;8.874;2022-12-18T23:27:11;41.77;;;19.50;;
13685;SDS011;6915;48.296;8.874;2022-12-18T23:29:40;43.30;;;20.47;;
13685;SDS011;6915;48.296;8.874;2022-12-18T23:32:09;40.00;;;20.13;;
13685;SDS011;6915;48.296;8.874;2022-12-18T23:34:39;41.60;;;19.70;;
13685;SDS011;6915;48.296;8.874;2022-12-18T23:37:08;41.93;;;20.20;;
13685;SDS011;6915;48.296;8.874;2022-12-18T23:39:37;42.60;;;20.13;;
13685;SDS011;6915;48.296;8.874;2022-12-18T23:42:07;41.50;;;19.87;;
13685;SDS011;6915;48.296;8.874;2022-12-18T23:44:35;40.90;;;19.47;;
13685;SDS011;6915;48.296;8.874;2022-12-18T23:47:04;37.40;;;18.97;;
13685;SDS011;6915;48.296;8.874;2022-12-18T23:49:32;40.90;;;20.00;;
13685;SDS011;6915;48.296;8.874;2022-12-18T23:52:01;36.20;;;18.07;;
13685;SDS011;6915;48.296;8.874;2022-12-18T23:54:30;40.40;;;19.97;;
13685;SDS011;6915;48.296;8.874;2022-12-18T23:56:58;37.13;;;18.03;;
13685;SDS011;6915;48.296;8.874;2022-12-18T23:59:29;38.80;;;18.90;;
